sensor_id;sensor_type;location;lat;lon;timestamp;P1;durP1;ratioP1;P2;durP2;ratioP2
6292;SDS011;3179;54.350;10.102;2024-02-26T00:02:17;7.53;;;6.73;;
6292;SDS011;3179;54.350;10.102;2024-02-26T00:04:44;8.90;;;8.00;;
6292;SDS011;3179;54.350;10.102;2024-02-26T00:07:11;8.93;;;8.10;;
6292;SDS011;3179;54.350;10.102;2024-02-26T00:09:38;8.10;;;7.30;;
6292;SDS011;3179;54.350;10.102;2024-02-26T00:12:05;10.67;;;8.20;;
6292;SDS011;3179;54.350;10.102;2024-02-26T00:14:32;7.77;;;7.07;;
6292;SDS011;3179;54.350;10.102;2024-02-26T00:17:00;8.00;;;6.90;;
6292;SDS011;3179;54.350;10.102;2024-02-26T00:19:28;8.63;;;7.73;;
6292;SDS011;3179;54.350;10.102;2024-02-26T00:21:55;9.60;;;8.50;;
6292;SDS011;3179;54.350;10.102;2024-02-26T00:24:22;9.00;;;8.10;;
6292;SDS011;3179;54.350;10.102;2024-02-26T00:26:49;9.50;;;8.53;;
6292;SDS011;3179;54.350;10.102;2024-02-26T00:29:19;9.73;;;8.80;;
6292;SDS011;3179;54.350;10.102;2024-02-26T00:31:46;9.33;;;8.53;;
6292;SDS011;3179;54.350;10.102;2024-02-26T00:34:14;9.70;;;8.67;;
6292;SDS011;3179;54.350;10.102;2024-02-26T00:36:41;8.77;;;7.87;;
6292;SDS011;3179;54.350;10.102;2024-02-26T00:39:08;8.60;;;7.87;;
6292;SDS011;3179;54.350;10.102;2024-02-26T00:41:37;9.70;;;8.70;;
6292;SDS011;3179;54.350;10.102;2024-02-26T00:44:05;9.50;;;8.50;;
6292;SDS011;3179;54.350;10.102;2024-02-26T00:46:32;8.83;;;7.93;;
6292;SDS011;3179;54.350;10.102;2024-02-26T00:48:59;9.40;;;8.50;;
6292;SDS011;3179;54.350;10.102;2024-02-26T00:51:28;10.20;;;9.13;;
6292;SDS011;3179;54.350;10.102;2024-02-26T00:53:55;12.80;;;9.90;;
6292;SDS011;3179;54.350;10.102;2024-02-26T00:56:22;12.37;;;9.67;;
6292;SDS011;3179;54.350;10.102;2024-02-26T00:58:49;9.87;;;8.90;;
6292;SDS011;3179;54.350;10.102;2024-02-26T01:01:16;10.60;;;9.50;;
6292;SDS011;3179;54.350;10.102;2024-02-26T01:03:43;9.63;;;8.63;;
6292;SDS011;3179;54.350;10.102;2024-02-26T01:06:10;10.37;;;9.30;;
6292;SDS011;3179;54.350;10.102;2024-02-26T01:08:38;10.13;;;8.60;;
6292;SDS011;3179;54.350;10.102;2024-02-26T01:11:05;11.43;;;9.67;;
6292;SDS011;3179;54.350;10.102;2024-02-26T01:13:31;10.40;;;9.30;;
6292;SDS011;3179;54.350;10.102;2024-02-26T01:15:58;9.97;;;8.43;;
6292;SDS011;3179;54.350;10.102;2024-02-26T01:18:26;13.90;;;9.73;;
6292;SDS011;3179;54.350;10.102;2024-02-26T01:20:53;11.90;;;10.57;;
6292;SDS011;3179;54.350;10.102;2024-02-26T01:23:20;11.73;;;9.60;;
6292;SDS011;3179;54.350;10.102;2024-02-26T01:25:48;13.57;;;11.30;;
6292;SDS011;3179;54.350;10.102;2024-02-26T01:28:15;12.77;;;10.90;;
6292;SDS011;3179;54.350;10.102;2024-02-26T01:30:42;12.13;;;10.00;;
6292;SDS011;3179;54.350;10.102;2024-02-26T01:33:09;12.50;;;10.67;;
6292;SDS011;3179;54.350;10.102;2024-02-26T01:35:36;11.90;;;10.50;;
6292;SDS011;3179;54.350;10.102;2024-02-26T01:38:03;13.40;;;10.83;;
6292;SDS011;3179;54.350;10.102;2024-02-26T01:40:30;13.30;;;11.07;;
6292;SDS011;3179;54.350;10.102;2024-02-26T01:43:00;14.10;;;10.80;;
6292;SDS011;3179;54.350;10.102;2024-02-26T01:45:27;12.20;;;9.90;;
6292;SDS011;3179;54.350;10.102;2024-02-26T01:47:54;12.97;;;10.80;;
6292;SDS011;3179;54.350;10.102;2024-02-26T01:50:23;11.50;;;9.77;;
6292;SDS011;3179;54.350;10.102;2024-02-26T01:52:50;11.90;;;9.47;;
6292;SDS011;3179;54.350;10.102;2024-02-26T01:55:18;10.93;;;9.67;;
6292;SDS011;3179;54.350;10.102;2024-02-26T01:57:47;10.53;;;9.43;;
6292;SDS011;3179;54.350;10.102;2024-02-26T02:00:18;10.10;;;9.10;;
6292;SDS011;3179;54.350;10.102;2024-02-26T02:02:46;9.03;;;8.13;;
6292;SDS011;3179;54.350;10.102;2024-02-26T02:05:13;9.20;;;8.30;;
6292;SDS011;3179;54.350;10.102;2024-02-26T02:07:41;10.57;;;7.83;;
6292;SDS011;3179;54.350;10.102;2024-02-26T02:10:09;9.10;;;8.10;;
6292;SDS011;3179;54.350;10.102;2024-02-26T02:12:36;10.30;;;9.30;;
6292;SDS011;3179;54.350;10.102;2024-02-26T02:15:05;10.67;;;8.40;;
6292;SDS011;3179;54.350;10.102;2024-02-26T02:17:34;17.53;;;8.33;;
6292;SDS011;3179;54.350;10.102;2024-02-26T02:20:01;12.00;;;8.83;;
6292;SDS011;3179;54.350;10.102;2024-02-26T02:22:29;9.70;;;8.37;;
6292;SDS011;3179;54.350;10.102;2024-02-26T02:24:57;10.50;;;8.90;;
6292;SDS011;3179;54.350;10.102;2024-02-26T02:27:24;11.40;;;8.27;;
6292;SDS011;3179;54.350;10.102;2024-02-26T02:29:52;10.10;;;7.60;;
6292;SDS011;3179;54.350;10.102;2024-02-26T02:32:19;8.50;;;7.70;;
6292;SDS011;3179;54.350;10.102;2024-02-26T02:34:47;9.13;;;7.80;;
6292;SDS011;3179;54.350;10.102;2024-02-26T02:37:14;10.03;;;7.73;;
6292;SDS011;3179;54.350;10.102;2024-02-26T02:39:42;8.47;;;7.50;;
6292;SDS011;3179;54.350;10.102;2024-02-26T02:42:10;8.23;;;7.43;;
6292;SDS011;3179;54.350;10.102;2024-02-26T02:44:37;16.40;;;7.30;;
6292;SDS011;3179;54.350;10.102;2024-02-26T02:47:04;7.70;;;6.90;;
6292;SDS011;3179;54.350;10.102;2024-02-26T02:49:31;8.17;;;7.40;;
6292;SDS011;3179;54.350;10.102;2024-02-26T02:51:58;9.17;;;6.60;;
6292;SDS011;3179;54.350;10.102;2024-02-26T02:54:23;8.53;;;7.70;;
6292;SDS011;3179;54.350;10.102;2024-02-26T02:56:52;9.80;;;7.30;;
6292;SDS011;3179;54.350;10.102;2024-02-26T02:59:18;8.67;;;7.80;;
6292;SDS011;3179;54.350;10.102;2024-02-26T03:01:45;9.00;;;7.90;;
6292;SDS011;3179;54.350;10.102;2024-02-26T03:04:12;16.03;;;7.53;;
6292;SDS011;3179;54.350;10.102;2024-02-26T03:06:39;13.70;;;7.60;;
6292;SDS011;3179;54.350;10.102;2024-02-26T03:09:06;7.10;;;6.50;;
6292;SDS011;3179;54.350;10.102;2024-02-26T03:11:33;8.00;;;6.80;;
6292;SDS011;3179;54.350;10.102;2024-02-26T03:14:01;11.17;;;7.10;;
6292;SDS011;3179;54.350;10.102;2024-02-26T03:16:28;7.50;;;6.80;;
6292;SDS011;3179;54.350;10.102;2024-02-26T03:18:55;7.10;;;6.40;;
6292;SDS011;3179;54.350;10.102;2024-02-26T03:21:22;10.27;;;7.23;;
6292;SDS011;3179;54.350;10.102;2024-02-26T03:23:49;7.80;;;6.63;;
6292;SDS011;3179;54.350;10.102;2024-02-26T03:26:15;7.40;;;6.00;;
6292;SDS011;3179;54.350;10.102;2024-02-26T03:28:42;10.47;;;7.10;;
6292;SDS011;3179;54.350;10.102;2024-02-26T03:31:10;7.13;;;6.43;;
6292;SDS011;3179;54.350;10.102;2024-02-26T03:33:37;7.30;;;6.63;;
6292;SDS011;3179;54.350;10.102;2024-02-26T03:36:04;11.60;;;7.40;;
6292;SDS011;3179;54.350;10.102;2024-02-26T03:38:32;6.73;;;6.17;;
6292;SDS011;3179;54.350;10.102;2024-02-26T03:40:59;7.80;;;6.10;;
6292;SDS011;3179;54.350;10.102;2024-02-26T03:43:26;7.50;;;6.77;;
6292;SDS011;3179;54.350;10.102;2024-02-26T03:45:53;6.83;;;6.23;;
6292;SDS011;3179;54.350;10.102;2024-02-26T03:48:21;7.00;;;6.40;;
6292;SDS011;3179;54.350;10.102;2024-02-26T03:50:48;7.57;;;6.77;;
6292;SDS011;3179;54.350;10.102;2024-02-26T03:53:15;7.30;;;6.60;;
6292;SDS011;3179;54.350;10.102;2024-02-26T03:55:41;7.37;;;6.67;;
6292;SDS011;3179;54.350;10.102;2024-02-26T03:58:08;7.10;;;6.37;;
6292;SDS011;3179;54.350;10.102;2024-02-26T04:00:35;7.73;;;6.80;;
6292;SDS011;3179;54.350;10.102;2024-02-26T04:03:03;7.27;;;6.57;;
6292;SDS011;3179;54.350;10.102;2024-02-26T04:05:31;7.50;;;6.60;;
6292;SDS011;3179;54.350;10.102;2024-02-26T04:07:58;7.43;;;6.70;;
6292;SDS011;3179;54.350;10.102;2024-02-26T04:10:25;8.00;;;7.20;;
6292;SDS011;3179;54.350;10.102;2024-02-26T04:12:51;7.07;;;6.37;;
6292;SDS011;3179;54.350;10.102;2024-02-26T04:15:18;8.77;;;6.90;;
6292;SDS011;3179;54.350;10.102;2024-02-26T04:17:45;8.83;;;7.00;;
6292;SDS011;3179;54.350;10.102;2024-02-26T04:20:13;12.40;;;8.23;;
6292;SDS011;3179;54.350;10.102;2024-02-26T04:22:43;7.23;;;6.57;;
6292;SDS011;3179;54.350;10.102;2024-02-26T04:25:11;9.20;;;7.67;;
6292;SDS011;3179;54.350;10.102;2024-02-26T04:27:38;7.47;;;6.67;;
6292;SDS011;3179;54.350;10.102;2024-02-26T04:30:05;8.83;;;6.90;;
6292;SDS011;3179;54.350;10.102;2024-02-26T04:32:32;6.47;;;5.83;;
6292;SDS011;3179;54.350;10.102;2024-02-26T04:35:00;8.00;;;6.53;;
6292;SDS011;3179;54.350;10.102;2024-02-26T04:37:26;8.20;;;6.10;;
6292;SDS011;3179;54.350;10.102;2024-02-26T04:39:57;7.80;;;7.00;;
6292;SDS011;3179;54.350;10.102;2024-02-26T04:42:24;7.27;;;6.57;;
6292;SDS011;3179;54.350;10.102;2024-02-26T04:44:51;7.07;;;6.17;;
6292;SDS011;3179;54.350;10.102;2024-02-26T04:47:18;7.23;;;6.53;;
6292;SDS011;3179;54.350;10.102;2024-02-26T04:49:47;9.13;;;5.97;;
6292;SDS011;3179;54.350;10.102;2024-02-26T04:52:14;7.70;;;5.70;;
6292;SDS011;3179;54.350;10.102;2024-02-26T04:54:41;7.07;;;6.37;;
6292;SDS011;3179;54.350;10.102;2024-02-26T04:57:09;6.13;;;5.63;;
6292;SDS011;3179;54.350;10.102;2024-02-26T04:59:36;7.20;;;6.50;;
6292;SDS011;3179;54.350;10.102;2024-02-26T05:02:03;6.80;;;6.13;;
6292;SDS011;3179;54.350;10.102;2024-02-26T05:04:30;7.93;;;6.80;;
6292;SDS011;3179;54.350;10.102;2024-02-26T05:06:57;6.73;;;6.13;;
6292;SDS011;3179;54.350;10.102;2024-02-26T05:09:23;6.10;;;5.60;;
6292;SDS011;3179;54.350;10.102;2024-02-26T05:11:50;6.90;;;5.73;;
6292;SDS011;3179;54.350;10.102;2024-02-26T05:14:19;7.20;;;6.53;;
6292;SDS011;3179;54.350;10.102;2024-02-26T05:16:46;8.53;;;6.67;;
6292;SDS011;3179;54.350;10.102;2024-02-26T05:19:13;7.03;;;6.40;;
6292;SDS011;3179;54.350;10.102;2024-02-26T05:21:40;6.87;;;6.20;;
6292;SDS011;3179;54.350;10.102;2024-02-26T05:24:09;6.13;;;5.53;;
6292;SDS011;3179;54.350;10.102;2024-02-26T05:26:36;6.40;;;5.80;;
6292;SDS011;3179;54.350;10.102;2024-02-26T05:29:03;5.83;;;5.33;;
6292;SDS011;3179;54.350;10.102;2024-02-26T05:31:31;6.10;;;5.60;;
6292;SDS011;3179;54.350;10.102;2024-02-26T05:33:58;6.20;;;5.70;;
6292;SDS011;3179;54.350;10.102;2024-02-26T05:36:25;7.27;;;6.50;;
6292;SDS011;3179;54.350;10.102;2024-02-26T05:38:53;9.30;;;7.53;;
6292;SDS011;3179;54.350;10.102;2024-02-26T05:41:20;7.20;;;6.50;;
6292;SDS011;3179;54.350;10.102;2024-02-26T05:43:51;7.50;;;6.80;;
6292;SDS011;3179;54.350;10.102;2024-02-26T05:46:18;7.53;;;6.83;;
6292;SDS011;3179;54.350;10.102;2024-02-26T05:48:47;7.53;;;6.83;;
6292;SDS011;3179;54.350;10.102;2024-02-26T05:51:14;7.17;;;6.47;;
6292;SDS011;3179;54.350;10.102;2024-02-26T05:53:41;6.60;;;6.00;;
6292;SDS011;3179;54.350;10.102;2024-02-26T05:56:08;7.90;;;7.10;;
6292;SDS011;3179;54.350;10.102;2024-02-26T05:58:35;8.17;;;7.37;;
6292;SDS011;3179;54.350;10.102;2024-02-26T06:01:02;8.20;;;7.40;;
6292;SDS011;3179;54.350;10.102;2024-02-26T06:03:29;8.00;;;6.90;;
6292;SDS011;3179;54.350;10.102;2024-02-26T06:05:57;6.90;;;6.20;;
6292;SDS011;3179;54.350;10.102;2024-02-26T06:08:24;7.53;;;6.80;;
6292;SDS011;3179;54.350;10.102;2024-02-26T06:10:51;6.90;;;6.20;;
6292;SDS011;3179;54.350;10.102;2024-02-26T06:13:18;7.03;;;6.33;;
6292;SDS011;3179;54.350;10.102;2024-02-26T06:15:45;7.57;;;6.53;;
6292;SDS011;3179;54.350;10.102;2024-02-26T06:18:12;6.90;;;6.20;;
6292;SDS011;3179;54.350;10.102;2024-02-26T06:20:39;7.53;;;6.73;;
6292;SDS011;3179;54.350;10.102;2024-02-26T06:23:07;6.53;;;5.93;;
6292;SDS011;3179;54.350;10.102;2024-02-26T06:25:35;6.20;;;5.60;;
6292;SDS011;3179;54.350;10.102;2024-02-26T06:28:02;7.47;;;6.10;;
6292;SDS011;3179;54.350;10.102;2024-02-26T06:30:29;7.10;;;6.50;;
6292;SDS011;3179;54.350;10.102;2024-02-26T06:32:55;6.90;;;6.30;;
6292;SDS011;3179;54.350;10.102;2024-02-26T06:35:22;7.87;;;7.17;;
6292;SDS011;3179;54.350;10.102;2024-02-26T06:37:49;6.53;;;5.93;;
6292;SDS011;3179;54.350;10.102;2024-02-26T06:40:19;6.97;;;6.27;;
6292;SDS011;3179;54.350;10.102;2024-02-26T06:42:46;6.80;;;6.20;;
6292;SDS011;3179;54.350;10.102;2024-02-26T06:45:13;8.27;;;7.43;;
6292;SDS011;3179;54.350;10.102;2024-02-26T06:47:39;7.27;;;6.57;;
6292;SDS011;3179;54.350;10.102;2024-02-26T06:50:08;8.07;;;7.17;;
6292;SDS011;3179;54.350;10.102;2024-02-26T06:52:35;8.30;;;7.50;;
6292;SDS011;3179;54.350;10.102;2024-02-26T06:55:02;9.27;;;6.77;;
6292;SDS011;3179;54.350;10.102;2024-02-26T06:57:31;8.93;;;7.73;;
6292;SDS011;3179;54.350;10.102;2024-02-26T06:59:58;8.07;;;7.23;;
6292;SDS011;3179;54.350;10.102;2024-02-26T07:02:25;8.57;;;6.97;;
6292;SDS011;3179;54.350;10.102;2024-02-26T07:04:52;7.90;;;7.10;;
6292;SDS011;3179;54.350;10.102;2024-02-26T07:07:19;7.97;;;7.17;;
6292;SDS011;3179;54.350;10.102;2024-02-26T07:09:47;7.77;;;7.07;;
6292;SDS011;3179;54.350;10.102;2024-02-26T07:12:14;9.07;;;8.10;;
6292;SDS011;3179;54.350;10.102;2024-02-26T07:14:43;11.10;;;8.13;;
6292;SDS011;3179;54.350;10.102;2024-02-26T07:17:10;9.07;;;8.17;;
6292;SDS011;3179;54.350;10.102;2024-02-26T07:19:37;10.07;;;7.87;;
6292;SDS011;3179;54.350;10.102;2024-02-26T07:22:04;10.03;;;8.93;;
6292;SDS011;3179;54.350;10.102;2024-02-26T07:24:31;15.10;;;8.70;;
6292;SDS011;3179;54.350;10.102;2024-02-26T07:26:58;11.40;;;8.50;;
6292;SDS011;3179;54.350;10.102;2024-02-26T07:29:25;7.90;;;7.00;;
6292;SDS011;3179;54.350;10.102;2024-02-26T07:31:53;12.77;;;8.53;;
6292;SDS011;3179;54.350;10.102;2024-02-26T07:34:20;8.10;;;6.97;;
6292;SDS011;3179;54.350;10.102;2024-02-26T07:36:52;15.17;;;7.37;;
6292;SDS011;3179;54.350;10.102;2024-02-26T07:39:19;7.20;;;5.90;;
6292;SDS011;3179;54.350;10.102;2024-02-26T07:41:46;5.93;;;5.33;;
6292;SDS011;3179;54.350;10.102;2024-02-26T07:44:16;6.53;;;5.83;;
6292;SDS011;3179;54.350;10.102;2024-02-26T07:46:43;5.87;;;5.23;;
6292;SDS011;3179;54.350;10.102;2024-02-26T07:49:11;6.17;;;5.10;;
6292;SDS011;3179;54.350;10.102;2024-02-26T07:51:38;10.60;;;5.63;;
6292;SDS011;3179;54.350;10.102;2024-02-26T07:54:05;4.70;;;4.30;;
6292;SDS011;3179;54.350;10.102;2024-02-26T07:56:32;6.80;;;5.00;;
6292;SDS011;3179;54.350;10.102;2024-02-26T07:58:59;11.07;;;4.80;;
6292;SDS011;3179;54.350;10.102;2024-02-26T08:01:26;8.33;;;4.40;;
6292;SDS011;3179;54.350;10.102;2024-02-26T08:03:53;5.27;;;4.17;;
6292;SDS011;3179;54.350;10.102;2024-02-26T08:06:22;5.60;;;4.77;;
6292;SDS011;3179;54.350;10.102;2024-02-26T08:08:49;4.80;;;4.40;;
6292;SDS011;3179;54.350;10.102;2024-02-26T08:11:16;8.90;;;4.40;;
6292;SDS011;3179;54.350;10.102;2024-02-26T08:13:43;3.73;;;3.43;;
6292;SDS011;3179;54.350;10.102;2024-02-26T08:16:10;3.20;;;3.00;;
6292;SDS011;3179;54.350;10.102;2024-02-26T08:18:38;6.53;;;3.23;;
6292;SDS011;3179;54.350;10.102;2024-02-26T08:21:05;5.27;;;3.43;;
6292;SDS011;3179;54.350;10.102;2024-02-26T08:23:33;4.20;;;3.80;;
6292;SDS011;3179;54.350;10.102;2024-02-26T08:26:00;3.77;;;3.43;;
6292;SDS011;3179;54.350;10.102;2024-02-26T08:28:28;6.80;;;3.70;;
6292;SDS011;3179;54.350;10.102;2024-02-26T08:30:55;6.20;;;3.70;;
6292;SDS011;3179;54.350;10.102;2024-02-26T08:33:22;5.60;;;4.53;;
6292;SDS011;3179;54.350;10.102;2024-02-26T08:35:49;4.97;;;3.73;;
6292;SDS011;3179;54.350;10.102;2024-02-26T08:38:16;4.57;;;4.17;;
6292;SDS011;3179;54.350;10.102;2024-02-26T08:40:44;6.67;;;5.47;;
6292;SDS011;3179;54.350;10.102;2024-02-26T08:43:11;10.03;;;4.80;;
6292;SDS011;3179;54.350;10.102;2024-02-26T08:45:38;7.90;;;5.43;;
6292;SDS011;3179;54.350;10.102;2024-02-26T08:48:05;4.13;;;3.80;;
6292;SDS011;3179;54.350;10.102;2024-02-26T08:50:32;4.83;;;4.37;;
6292;SDS011;3179;54.350;10.102;2024-02-26T08:53:00;6.53;;;4.73;;
6292;SDS011;3179;54.350;10.102;2024-02-26T08:55:28;5.03;;;4.37;;
6292;SDS011;3179;54.350;10.102;2024-02-26T08:57:56;4.47;;;4.07;;
6292;SDS011;3179;54.350;10.102;2024-02-26T09:00:23;5.83;;;4.50;;
6292;SDS011;3179;54.350;10.102;2024-02-26T09:02:50;4.03;;;3.73;;
6292;SDS011;3179;54.350;10.102;2024-02-26T09:05:17;4.03;;;3.63;;
6292;SDS011;3179;54.350;10.102;2024-02-26T09:07:44;6.33;;;3.90;;
6292;SDS011;3179;54.350;10.102;2024-02-26T09:10:11;3.87;;;3.50;;
6292;SDS011;3179;54.350;10.102;2024-02-26T09:12:38;5.70;;;5.10;;
6292;SDS011;3179;54.350;10.102;2024-02-26T09:15:07;10.10;;;4.50;;
6292;SDS011;3179;54.350;10.102;2024-02-26T09:17:35;8.53;;;4.37;;
6292;SDS011;3179;54.350;10.102;2024-02-26T09:20:02;5.13;;;4.53;;
6292;SDS011;3179;54.350;10.102;2024-02-26T09:22:30;7.73;;;5.07;;
6292;SDS011;3179;54.350;10.102;2024-02-26T09:24:57;5.43;;;4.53;;
6292;SDS011;3179;54.350;10.102;2024-02-26T09:27:24;6.73;;;5.60;;
6292;SDS011;3179;54.350;10.102;2024-02-26T09:29:51;8.33;;;4.80;;
6292;SDS011;3179;54.350;10.102;2024-02-26T09:32:19;5.37;;;4.83;;
6292;SDS011;3179;54.350;10.102;2024-02-26T09:34:46;5.43;;;4.63;;
6292;SDS011;3179;54.350;10.102;2024-02-26T09:37:13;4.60;;;4.20;;
6292;SDS011;3179;54.350;10.102;2024-02-26T09:39:40;4.30;;;3.90;;
6292;SDS011;3179;54.350;10.102;2024-02-26T09:42:07;5.90;;;5.07;;
6292;SDS011;3179;54.350;10.102;2024-02-26T09:44:38;4.27;;;3.87;;
6292;SDS011;3179;54.350;10.102;2024-02-26T09:47:07;5.07;;;4.37;;
6292;SDS011;3179;54.350;10.102;2024-02-26T09:49:37;5.07;;;4.57;;
6292;SDS011;3179;54.350;10.102;2024-02-26T09:52:05;4.10;;;3.80;;
6292;SDS011;3179;54.350;10.102;2024-02-26T09:54:34;3.80;;;3.50;;
6292;SDS011;3179;54.350;10.102;2024-02-26T09:57:02;3.37;;;3.07;;
6292;SDS011;3179;54.350;10.102;2024-02-26T09:59:32;3.37;;;3.07;;
6292;SDS011;3179;54.350;10.102;2024-02-26T10:02:05;5.50;;;3.67;;
6292;SDS011;3179;54.350;10.102;2024-02-26T10:04:35;3.07;;;2.87;;
6292;SDS011;3179;54.350;10.102;2024-02-26T10:07:04;3.53;;;3.23;;
6292;SDS011;3179;54.350;10.102;2024-02-26T10:09:35;3.50;;;3.20;;
6292;SDS011;3179;54.350;10.102;2024-02-26T10:12:03;3.90;;;3.60;;
6292;SDS011;3179;54.350;10.102;2024-02-26T10:14:30;4.53;;;4.13;;
6292;SDS011;3179;54.350;10.102;2024-02-26T10:16:57;5.47;;;4.80;;
6292;SDS011;3179;54.350;10.102;2024-02-26T10:19:26;3.97;;;3.60;;
6292;SDS011;3179;54.350;10.102;2024-02-26T10:21:56;5.53;;;4.93;;
6292;SDS011;3179;54.350;10.102;2024-02-26T10:24:24;5.10;;;4.23;;
6292;SDS011;3179;54.350;10.102;2024-02-26T10:26:51;4.20;;;3.87;;
6292;SDS011;3179;54.350;10.102;2024-02-26T10:29:18;5.40;;;4.90;;
6292;SDS011;3179;54.350;10.102;2024-02-26T10:31:46;6.20;;;5.60;;
6292;SDS011;3179;54.350;10.102;2024-02-26T10:34:14;4.73;;;4.30;;
6292;SDS011;3179;54.350;10.102;2024-02-26T10:36:41;4.97;;;4.50;;
6292;SDS011;3179;54.350;10.102;2024-02-26T10:39:09;5.97;;;5.10;;
6292;SDS011;3179;54.350;10.102;2024-02-26T10:41:39;5.90;;;5.20;;
6292;SDS011;3179;54.350;10.102;2024-02-26T10:44:08;5.30;;;4.77;;
6292;SDS011;3179;54.350;10.102;2024-02-26T10:46:35;6.20;;;5.00;;
6292;SDS011;3179;54.350;10.102;2024-02-26T10:49:03;7.97;;;6.30;;
6292;SDS011;3179;54.350;10.102;2024-02-26T10:51:31;6.83;;;5.80;;
6292;SDS011;3179;54.350;10.102;2024-02-26T10:54:03;6.40;;;5.53;;
6292;SDS011;3179;54.350;10.102;2024-02-26T10:56:33;7.53;;;6.73;;
6292;SDS011;3179;54.350;10.102;2024-02-26T10:59:04;6.50;;;5.77;;
6292;SDS011;3179;54.350;10.102;2024-02-26T11:01:35;7.53;;;6.73;;
6292;SDS011;3179;54.350;10.102;2024-02-26T11:04:03;9.13;;;7.00;;
6292;SDS011;3179;54.350;10.102;2024-02-26T11:06:31;7.17;;;6.17;;
6292;SDS011;3179;54.350;10.102;2024-02-26T11:08:59;8.33;;;6.97;;
6292;SDS011;3179;54.350;10.102;2024-02-26T11:11:28;9.47;;;7.77;;
6292;SDS011;3179;54.350;10.102;2024-02-26T11:13:56;10.03;;;6.97;;
6292;SDS011;3179;54.350;10.102;2024-02-26T11:16:27;8.70;;;7.03;;
6292;SDS011;3179;54.350;10.102;2024-02-26T11:18:55;10.77;;;7.80;;
6292;SDS011;3179;54.350;10.102;2024-02-26T11:21:23;10.03;;;8.17;;
6292;SDS011;3179;54.350;10.102;2024-02-26T11:23:55;7.90;;;6.53;;
6292;SDS011;3179;54.350;10.102;2024-02-26T11:26:22;9.40;;;7.50;;
6292;SDS011;3179;54.350;10.102;2024-02-26T11:28:51;8.40;;;6.83;;
6292;SDS011;3179;54.350;10.102;2024-02-26T11:31:19;7.47;;;6.07;;
6292;SDS011;3179;54.350;10.102;2024-02-26T11:33:53;7.77;;;6.97;;
6292;SDS011;3179;54.350;10.102;2024-02-26T11:36:21;7.57;;;6.20;;
6292;SDS011;3179;54.350;10.102;2024-02-26T11:38:50;7.40;;;6.30;;
6292;SDS011;3179;54.350;10.102;2024-02-26T11:41:17;8.80;;;6.60;;
6292;SDS011;3179;54.350;10.102;2024-02-26T11:43:50;6.77;;;6.00;;
6292;SDS011;3179;54.350;10.102;2024-02-26T11:46:27;7.00;;;5.63;;
6292;SDS011;3179;54.350;10.102;2024-02-26T11:49:00;5.70;;;5.17;;
6292;SDS011;3179;54.350;10.102;2024-02-26T11:51:28;7.43;;;6.30;;
6292;SDS011;3179;54.350;10.102;2024-02-26T11:53:59;7.50;;;6.17;;
6292;SDS011;3179;54.350;10.102;2024-02-26T11:56:26;7.10;;;6.40;;
6292;SDS011;3179;54.350;10.102;2024-02-26T11:58:57;7.73;;;6.87;;
6292;SDS011;3179;54.350;10.102;2024-02-26T12:01:35;8.63;;;6.40;;
6292;SDS011;3179;54.350;10.102;2024-02-26T12:04:03;7.27;;;5.87;;
6292;SDS011;3179;54.350;10.102;2024-02-26T12:06:31;7.30;;;6.60;;
6292;SDS011;3179;54.350;10.102;2024-02-26T12:09:05;8.50;;;7.40;;
6292;SDS011;3179;54.350;10.102;2024-02-26T12:11:33;6.90;;;6.20;;
6292;SDS011;3179;54.350;10.102;2024-02-26T12:14:05;7.60;;;6.80;;
6292;SDS011;3179;54.350;10.102;2024-02-26T12:16:37;6.00;;;5.40;;
6292;SDS011;3179;54.350;10.102;2024-02-26T12:19:06;7.33;;;6.13;;
6292;SDS011;3179;54.350;10.102;2024-02-26T12:21:35;7.07;;;6.37;;
6292;SDS011;3179;54.350;10.102;2024-02-26T12:24:12;7.27;;;6.57;;
6292;SDS011;3179;54.350;10.102;2024-02-26T12:26:41;6.07;;;5.47;;
6292;SDS011;3179;54.350;10.102;2024-02-26T12:29:08;5.87;;;5.30;;
6292;SDS011;3179;54.350;10.102;2024-02-26T12:31:36;8.23;;;6.00;;
6292;SDS011;3179;54.350;10.102;2024-02-26T12:34:03;6.00;;;5.40;;
6292;SDS011;3179;54.350;10.102;2024-02-26T12:36:32;6.27;;;5.67;;
6292;SDS011;3179;54.350;10.102;2024-02-26T12:39:00;5.73;;;5.23;;
6292;SDS011;3179;54.350;10.102;2024-02-26T12:41:28;9.27;;;7.30;;
6292;SDS011;3179;54.350;10.102;2024-02-26T12:43:55;6.93;;;6.23;;
6292;SDS011;3179;54.350;10.102;2024-02-26T12:46:23;6.47;;;5.30;;
6292;SDS011;3179;54.350;10.102;2024-02-26T12:48:50;5.70;;;5.20;;
6292;SDS011;3179;54.350;10.102;2024-02-26T12:51:18;6.00;;;5.40;;
6292;SDS011;3179;54.350;10.102;2024-02-26T12:53:46;7.90;;;7.10;;
6292;SDS011;3179;54.350;10.102;2024-02-26T12:56:15;6.90;;;6.20;;
6292;SDS011;3179;54.350;10.102;2024-02-26T12:58:43;6.97;;;6.03;;
6292;SDS011;3179;54.350;10.102;2024-02-26T13:01:13;6.73;;;6.10;;
6292;SDS011;3179;54.350;10.102;2024-02-26T13:03:41;6.43;;;5.70;;
6292;SDS011;3179;54.350;10.102;2024-02-26T13:06:09;5.73;;;5.23;;
6292;SDS011;3179;54.350;10.102;2024-02-26T13:08:38;6.87;;;6.17;;
6292;SDS011;3179;54.350;10.102;2024-02-26T13:11:05;6.13;;;5.57;;
6292;SDS011;3179;54.350;10.102;2024-02-26T13:13:33;7.00;;;6.10;;
6292;SDS011;3179;54.350;10.102;2024-02-26T13:16:03;7.60;;;6.80;;
6292;SDS011;3179;54.350;10.102;2024-02-26T13:18:33;7.17;;;6.47;;
6292;SDS011;3179;54.350;10.102;2024-02-26T13:21:08;6.60;;;5.97;;
6292;SDS011;3179;54.350;10.102;2024-02-26T13:23:35;7.63;;;6.83;;
6292;SDS011;3179;54.350;10.102;2024-02-26T13:26:04;7.67;;;6.63;;
6292;SDS011;3179;54.350;10.102;2024-02-26T13:28:32;7.23;;;6.57;;
6292;SDS011;3179;54.350;10.102;2024-02-26T13:31:00;6.80;;;6.10;;
6292;SDS011;3179;54.350;10.102;2024-02-26T13:33:29;7.20;;;6.50;;
6292;SDS011;3179;54.350;10.102;2024-02-26T13:35:57;7.00;;;6.33;;
6292;SDS011;3179;54.350;10.102;2024-02-26T13:38:25;8.77;;;7.20;;
6292;SDS011;3179;54.350;10.102;2024-02-26T13:40:53;9.43;;;7.37;;
6292;SDS011;3179;54.350;10.102;2024-02-26T13:43:21;6.67;;;6.00;;
6292;SDS011;3179;54.350;10.102;2024-02-26T13:45:48;7.10;;;6.40;;
6292;SDS011;3179;54.350;10.102;2024-02-26T13:48:16;6.97;;;6.27;;
6292;SDS011;3179;54.350;10.102;2024-02-26T13:50:43;8.07;;;7.30;;
6292;SDS011;3179;54.350;10.102;2024-02-26T13:53:10;7.40;;;6.70;;
6292;SDS011;3179;54.350;10.102;2024-02-26T13:55:37;8.30;;;7.40;;
6292;SDS011;3179;54.350;10.102;2024-02-26T13:58:05;9.30;;;7.60;;
6292;SDS011;3179;54.350;10.102;2024-02-26T14:00:33;7.60;;;6.90;;
6292;SDS011;3179;54.350;10.102;2024-02-26T14:03:00;9.50;;;8.20;;
6292;SDS011;3179;54.350;10.102;2024-02-26T14:05:27;9.57;;;7.87;;
6292;SDS011;3179;54.350;10.102;2024-02-26T14:07:55;9.30;;;8.33;;
6292;SDS011;3179;54.350;10.102;2024-02-26T14:10:22;8.87;;;7.43;;
6292;SDS011;3179;54.350;10.102;2024-02-26T14:12:48;8.33;;;7.20;;
6292;SDS011;3179;54.350;10.102;2024-02-26T14:15:15;9.77;;;8.50;;
6292;SDS011;3179;54.350;10.102;2024-02-26T14:17:44;10.37;;;7.90;;
6292;SDS011;3179;54.350;10.102;2024-02-26T14:20:18;8.30;;;7.50;;
6292;SDS011;3179;54.350;10.102;2024-02-26T14:22:45;7.97;;;6.93;;
6292;SDS011;3179;54.350;10.102;2024-02-26T14:25:12;6.40;;;5.77;;
6292;SDS011;3179;54.350;10.102;2024-02-26T14:27:39;8.43;;;7.40;;
6292;SDS011;3179;54.350;10.102;2024-02-26T14:30:06;7.90;;;6.97;;
6292;SDS011;3179;54.350;10.102;2024-02-26T14:32:34;8.87;;;7.97;;
6292;SDS011;3179;54.350;10.102;2024-02-26T14:35:04;12.37;;;8.97;;
6292;SDS011;3179;54.350;10.102;2024-02-26T14:37:33;8.60;;;7.70;;
6292;SDS011;3179;54.350;10.102;2024-02-26T14:40:00;9.23;;;7.53;;
6292;SDS011;3179;54.350;10.102;2024-02-26T14:42:28;10.23;;;8.10;;
6292;SDS011;3179;54.350;10.102;2024-02-26T14:44:55;9.87;;;8.30;;
6292;SDS011;3179;54.350;10.102;2024-02-26T14:47:22;9.93;;;8.00;;
6292;SDS011;3179;54.350;10.102;2024-02-26T14:49:49;8.70;;;7.30;;
6292;SDS011;3179;54.350;10.102;2024-02-26T14:52:18;7.90;;;7.10;;
6292;SDS011;3179;54.350;10.102;2024-02-26T14:54:45;7.00;;;6.30;;
6292;SDS011;3179;54.350;10.102;2024-02-26T14:57:12;9.40;;;7.70;;
6292;SDS011;3179;54.350;10.102;2024-02-26T14:59:38;8.40;;;7.60;;
6292;SDS011;3179;54.350;10.102;2024-02-26T15:02:05;8.07;;;6.90;;